sensor_id;sensor_type;location;lat;lon;timestamp;P1;durP1;ratioP1;P2;durP2;ratioP2
6358;SDS011;3212;51.460;11.868;2023-03-31T00:02:46;2.80;;;1.50;;
6358;SDS011;3212;51.460;11.868;2023-03-31T00:06:09;2.07;;;1.30;;
6358;SDS011;3212;51.460;11.868;2023-03-31T00:09:31;3.63;;;1.50;;
6358;SDS011;3212;51.460;11.868;2023-03-31T00:12:53;2.60;;;1.23;;
6358;SDS011;3212;51.460;11.868;2023-03-31T00:16:17;2.73;;;1.43;;
6358;SDS011;3212;51.460;11.868;2023-03-31T00:19:40;1.60;;;1.37;;
6358;SDS011;3212;51.460;11.868;2023-03-31T00:23:04;2.75;;;1.30;;
6358;SDS011;3212;51.460;11.868;2023-03-31T00:26:26;2.30;;;1.43;;
6358;SDS011;3212;51.460;11.868;2023-03-31T00:29:48;2.23;;;1.60;;
6358;SDS011;3212;51.460;11.868;2023-03-31T00:33:12;4.33;;;1.40;;
6358;SDS011;3212;51.460;11.868;2023-03-31T00:36:34;3.10;;;1.60;;
6358;SDS011;3212;51.460;11.868;2023-03-31T00:39:56;6.47;;;2.30;;
6358;SDS011;3212;51.460;11.868;2023-03-31T00:43:23;3.57;;;1.40;;
6358;SDS011;3212;51.460;11.868;2023-03-31T00:46:49;2.70;;;1.33;;
6358;SDS011;3212;51.460;11.868;2023-03-31T00:50:14;3.93;;;1.53;;
6358;SDS011;3212;51.460;11.868;2023-03-31T00:53:37;1.87;;;1.63;;
6358;SDS011;3212;51.460;11.868;2023-03-31T00:57:00;1.63;;;1.37;;
6358;SDS011;3212;51.460;11.868;2023-03-31T01:00:22;6.00;;;1.50;;
6358;SDS011;3212;51.460;11.868;2023-03-31T01:03:45;3.03;;;1.50;;
6358;SDS011;3212;51.460;11.868;2023-03-31T01:07:13;3.00;;;1.80;;
6358;SDS011;3212;51.460;11.868;2023-03-31T01:10:44;5.70;;;1.70;;
6358;SDS011;3212;51.460;11.868;2023-03-31T01:14:05;5.40;;;1.77;;
6358;SDS011;3212;51.460;11.868;2023-03-31T01:17:27;4.83;;;1.80;;
6358;SDS011;3212;51.460;11.868;2023-03-31T01:24:40;2.27;;;1.67;;
6358;SDS011;3212;51.460;11.868;2023-03-31T01:28:22;4.20;;;1.80;;
6358;SDS011;3212;51.460;11.868;2023-03-31T01:35:20;3.27;;;1.93;;
6358;SDS011;3212;51.460;11.868;2023-03-31T01:38:51;5.87;;;1.90;;
6358;SDS011;3212;51.460;11.868;2023-03-31T01:42:24;2.90;;;1.53;;
6358;SDS011;3212;51.460;11.868;2023-03-31T01:49:26;4.70;;;1.80;;
6358;SDS011;3212;51.460;11.868;2023-03-31T01:52:56;4.93;;;1.67;;
6358;SDS011;3212;51.460;11.868;2023-03-31T01:56:20;5.33;;;1.40;;
6358;SDS011;3212;51.460;11.868;2023-03-31T01:59:48;5.90;;;1.80;;
6358;SDS011;3212;51.460;11.868;2023-03-31T02:03:10;4.33;;;1.50;;
6358;SDS011;3212;51.460;11.868;2023-03-31T02:06:39;3.27;;;1.40;;
6358;SDS011;3212;51.460;11.868;2023-03-31T02:10:01;4.00;;;2.10;;
6358;SDS011;3212;51.460;11.868;2023-03-31T02:13:23;3.50;;;1.60;;
6358;SDS011;3212;51.460;11.868;2023-03-31T02:16:45;2.83;;;1.77;;
6358;SDS011;3212;51.460;11.868;2023-03-31T02:20:09;3.37;;;1.80;;
6358;SDS011;3212;51.460;11.868;2023-03-31T02:23:30;5.80;;;1.93;;
6358;SDS011;3212;51.460;11.868;2023-03-31T02:26:55;3.30;;;1.40;;
6358;SDS011;3212;51.460;11.868;2023-03-31T02:30:16;2.13;;;1.30;;
6358;SDS011;3212;51.460;11.868;2023-03-31T02:33:39;1.40;;;1.30;;
6358;SDS011;3212;51.460;11.868;2023-03-31T02:37:02;3.83;;;1.30;;
6358;SDS011;3212;51.460;11.868;2023-03-31T02:40:25;1.60;;;1.40;;
6358;SDS011;3212;51.460;11.868;2023-03-31T02:43:47;6.10;;;1.40;;
6358;SDS011;3212;51.460;11.868;2023-03-31T02:47:10;5.93;;;1.90;;
6358;SDS011;3212;51.460;11.868;2023-03-31T02:50:41;5.90;;;1.73;;
6358;SDS011;3212;51.460;11.868;2023-03-31T03:01:36;3.20;;;1.67;;
6358;SDS011;3212;51.460;11.868;2023-03-31T03:05:10;3.13;;;1.70;;
6358;SDS011;3212;51.460;11.868;2023-03-31T03:08:36;3.80;;;1.63;;
6358;SDS011;3212;51.460;11.868;2023-03-31T03:12:09;5.27;;;2.23;;
6358;SDS011;3212;51.460;11.868;2023-03-31T03:15:38;3.60;;;1.57;;
6358;SDS011;3212;51.460;11.868;2023-03-31T03:19:02;5.67;;;1.77;;
6358;SDS011;3212;51.460;11.868;2023-03-31T03:22:24;4.53;;;1.80;;
6358;SDS011;3212;51.460;11.868;2023-03-31T03:25:47;3.30;;;2.03;;
6358;SDS011;3212;51.460;11.868;2023-03-31T03:29:10;3.77;;;1.60;;
6358;SDS011;3212;51.460;11.868;2023-03-31T03:32:34;2.20;;;1.70;;
6358;SDS011;3212;51.460;11.868;2023-03-31T03:35:57;4.30;;;1.43;;
6358;SDS011;3212;51.460;11.868;2023-03-31T03:39:19;4.33;;;1.90;;
6358;SDS011;3212;51.460;11.868;2023-03-31T03:42:41;5.50;;;1.63;;
6358;SDS011;3212;51.460;11.868;2023-03-31T03:46:05;11.27;;;1.70;;
6358;SDS011;3212;51.460;11.868;2023-03-31T03:49:27;3.30;;;1.63;;
6358;SDS011;3212;51.460;11.868;2023-03-31T03:52:49;2.57;;;1.80;;
6358;SDS011;3212;51.460;11.868;2023-03-31T03:56:12;4.20;;;1.87;;
6358;SDS011;3212;51.460;11.868;2023-03-31T03:59:34;3.03;;;1.87;;
6358;SDS011;3212;51.460;11.868;2023-03-31T04:02:57;4.03;;;1.63;;
6358;SDS011;3212;51.460;11.868;2023-03-31T04:06:20;3.37;;;1.70;;
6358;SDS011;3212;51.460;11.868;2023-03-31T04:09:42;4.87;;;1.77;;
6358;SDS011;3212;51.460;11.868;2023-03-31T04:13:05;3.70;;;1.75;;
6358;SDS011;3212;51.460;11.868;2023-03-31T04:16:28;3.83;;;1.73;;
6358;SDS011;3212;51.460;11.868;2023-03-31T04:19:50;6.50;;;1.87;;
6358;SDS011;3212;51.460;11.868;2023-03-31T04:23:13;5.37;;;1.70;;
6358;SDS011;3212;51.460;11.868;2023-03-31T04:26:35;3.03;;;1.67;;
6358;SDS011;3212;51.460;11.868;2023-03-31T04:29:59;3.93;;;1.80;;
6358;SDS011;3212;51.460;11.868;2023-03-31T04:33:23;9.37;;;1.70;;
6358;SDS011;3212;51.460;11.868;2023-03-31T04:36:45;6.17;;;1.93;;
6358;SDS011;3212;51.460;11.868;2023-03-31T04:40:08;2.73;;;1.50;;
6358;SDS011;3212;51.460;11.868;2023-03-31T04:43:30;6.97;;;1.97;;
6358;SDS011;3212;51.460;11.868;2023-03-31T04:46:53;4.83;;;1.90;;
6358;SDS011;3212;51.460;11.868;2023-03-31T04:50:15;3.80;;;1.97;;
6358;SDS011;3212;51.460;11.868;2023-03-31T04:53:38;4.10;;;1.60;;
6358;SDS011;3212;51.460;11.868;2023-03-31T04:57:01;4.73;;;1.93;;
6358;SDS011;3212;51.460;11.868;2023-03-31T05:00:23;4.40;;;1.50;;
6358;SDS011;3212;51.460;11.868;2023-03-31T05:03:46;3.10;;;1.43;;
6358;SDS011;3212;51.460;11.868;2023-03-31T05:07:09;3.63;;;1.70;;
6358;SDS011;3212;51.460;11.868;2023-03-31T05:10:31;4.40;;;1.80;;
6358;SDS011;3212;51.460;11.868;2023-03-31T05:13:54;5.53;;;1.50;;
6358;SDS011;3212;51.460;11.868;2023-03-31T05:17:16;5.33;;;1.40;;
6358;SDS011;3212;51.460;11.868;2023-03-31T05:20:38;2.80;;;1.50;;
6358;SDS011;3212;51.460;11.868;2023-03-31T05:24:01;3.90;;;1.77;;
6358;SDS011;3212;51.460;11.868;2023-03-31T05:27:23;1.67;;;1.43;;
6358;SDS011;3212;51.460;11.868;2023-03-31T05:30:46;2.60;;;1.30;;
6358;SDS011;3212;51.460;11.868;2023-03-31T05:34:08;5.07;;;1.60;;
6358;SDS011;3212;51.460;11.868;2023-03-31T05:41:00;1.37;;;1.27;;
6358;SDS011;3212;51.460;11.868;2023-03-31T05:44:23;3.57;;;1.23;;
6358;SDS011;3212;51.460;11.868;2023-03-31T05:47:46;1.37;;;1.23;;
6358;SDS011;3212;51.460;11.868;2023-03-31T05:51:08;3.93;;;1.33;;
6358;SDS011;3212;51.460;11.868;2023-03-31T05:54:31;4.40;;;1.47;;
6358;SDS011;3212;51.460;11.868;2023-03-31T05:57:53;2.43;;;1.30;;
6358;SDS011;3212;51.460;11.868;2023-03-31T06:01:16;7.17;;;1.67;;
6358;SDS011;3212;51.460;11.868;2023-03-31T06:04:39;2.37;;;1.50;;
6358;SDS011;3212;51.460;11.868;2023-03-31T06:08:01;4.27;;;1.70;;
6358;SDS011;3212;51.460;11.868;2023-03-31T06:11:24;2.17;;;1.47;;
6358;SDS011;3212;51.460;11.868;2023-03-31T06:14:46;1.70;;;1.60;;
6358;SDS011;3212;51.460;11.868;2023-03-31T06:18:09;3.43;;;1.77;;
6358;SDS011;3212;51.460;11.868;2023-03-31T06:21:32;5.20;;;1.80;;
6358;SDS011;3212;51.460;11.868;2023-03-31T06:24:54;2.67;;;1.47;;
6358;SDS011;3212;51.460;11.868;2023-03-31T06:28:17;2.27;;;1.80;;
6358;SDS011;3212;51.460;11.868;2023-03-31T06:31:39;6.77;;;1.50;;
6358;SDS011;3212;51.460;11.868;2023-03-31T06:35:01;6.13;;;1.60;;
6358;SDS011;3212;51.460;11.868;2023-03-31T06:38:24;2.57;;;1.60;;
6358;SDS011;3212;51.460;11.868;2023-03-31T06:41:47;2.63;;;1.37;;
6358;SDS011;3212;51.460;11.868;2023-03-31T06:45:09;4.83;;;1.57;;
6358;SDS011;3212;51.460;11.868;2023-03-31T06:48:32;6.30;;;1.80;;
6358;SDS011;3212;51.460;11.868;2023-03-31T06:51:54;3.13;;;1.43;;
6358;SDS011;3212;51.460;11.868;2023-03-31T06:55:17;6.60;;;1.53;;
6358;SDS011;3212;51.460;11.868;2023-03-31T06:58:40;2.30;;;1.27;;
6358;SDS011;3212;51.460;11.868;2023-03-31T07:02:03;6.60;;;1.30;;
6358;SDS011;3212;51.460;11.868;2023-03-31T07:05:25;1.53;;;1.37;;
6358;SDS011;3212;51.460;11.868;2023-03-31T07:08:47;2.30;;;1.47;;
6358;SDS011;3212;51.460;11.868;2023-03-31T07:12:10;3.37;;;1.83;;
6358;SDS011;3212;51.460;11.868;2023-03-31T07:15:32;4.20;;;1.60;;
6358;SDS011;3212;51.460;11.868;2023-03-31T07:18:55;3.43;;;1.40;;
6358;SDS011;3212;51.460;11.868;2023-03-31T07:22:18;3.17;;;1.20;;
6358;SDS011;3212;51.460;11.868;2023-03-31T07:25:40;3.47;;;1.43;;
6358;SDS011;3212;51.460;11.868;2023-03-31T07:29:03;1.50;;;1.40;;
6358;SDS011;3212;51.460;11.868;2023-03-31T07:32:26;2.37;;;1.50;;
6358;SDS011;3212;51.460;11.868;2023-03-31T07:35:48;2.80;;;1.43;;
6358;SDS011;3212;51.460;11.868;2023-03-31T07:39:11;4.20;;;1.60;;
6358;SDS011;3212;51.460;11.868;2023-03-31T07:42:34;1.53;;;1.43;;
6358;SDS011;3212;51.460;11.868;2023-03-31T07:45:57;2.20;;;1.60;;
6358;SDS011;3212;51.460;11.868;2023-03-31T07:49:19;2.37;;;1.63;;
6358;SDS011;3212;51.460;11.868;2023-03-31T07:52:42;3.50;;;1.53;;
6358;SDS011;3212;51.460;11.868;2023-03-31T07:56:04;3.00;;;1.77;;
6358;SDS011;3212;51.460;11.868;2023-03-31T07:59:27;2.17;;;1.50;;
6358;SDS011;3212;51.460;11.868;2023-03-31T08:02:50;3.07;;;1.70;;
6358;SDS011;3212;51.460;11.868;2023-03-31T08:06:17;3.27;;;1.77;;
6358;SDS011;3212;51.460;11.868;2023-03-31T08:09:41;3.80;;;1.80;;
6358;SDS011;3212;51.460;11.868;2023-03-31T08:13:02;1.90;;;1.62;;
6358;SDS011;3212;51.460;11.868;2023-03-31T08:16:25;4.80;;;1.90;;
6358;SDS011;3212;51.460;11.868;2023-03-31T08:19:48;2.60;;;2.30;;
6358;SDS011;3212;51.460;11.868;2023-03-31T08:23:11;2.03;;;1.80;;
6358;SDS011;3212;51.460;11.868;2023-03-31T08:26:34;3.07;;;1.90;;
6358;SDS011;3212;51.460;11.868;2023-03-31T08:29:57;4.50;;;2.20;;
6358;SDS011;3212;51.460;11.868;2023-03-31T08:33:19;2.80;;;2.10;;
6358;SDS011;3212;51.460;11.868;2023-03-31T08:36:42;3.27;;;1.80;;
6358;SDS011;3212;51.460;11.868;2023-03-31T08:40:06;4.70;;;1.90;;
6358;SDS011;3212;51.460;11.868;2023-03-31T08:43:33;8.00;;;2.00;;
6358;SDS011;3212;51.460;11.868;2023-03-31T08:46:56;5.07;;;2.67;;
6358;SDS011;3212;51.460;11.868;2023-03-31T08:50:20;3.10;;;1.90;;
6358;SDS011;3212;51.460;11.868;2023-03-31T08:53:44;4.57;;;2.10;;
6358;SDS011;3212;51.460;11.868;2023-03-31T08:57:09;4.23;;;1.80;;
6358;SDS011;3212;51.460;11.868;2023-03-31T09:00:29;4.27;;;2.20;;
6358;SDS011;3212;51.460;11.868;2023-03-31T09:03:58;6.10;;;2.10;;
6358;SDS011;3212;51.460;11.868;2023-03-31T09:11:05;3.67;;;2.10;;
6358;SDS011;3212;51.460;11.868;2023-03-31T09:14:29;3.00;;;2.10;;
6358;SDS011;3212;51.460;11.868;2023-03-31T09:17:56;3.83;;;2.10;;
6358;SDS011;3212;51.460;11.868;2023-03-31T09:21:22;4.30;;;2.20;;
6358;SDS011;3212;51.460;11.868;2023-03-31T09:24:46;4.03;;;1.93;;
6358;SDS011;3212;51.460;11.868;2023-03-31T09:28:12;2.93;;;1.90;;
6358;SDS011;3212;51.460;11.868;2023-03-31T09:31:30;2.70;;;1.90;;
6358;SDS011;3212;51.460;11.868;2023-03-31T09:34:55;2.23;;;1.60;;
6358;SDS011;3212;51.460;11.868;2023-03-31T09:38:16;2.80;;;1.60;;
6358;SDS011;3212;51.460;11.868;2023-03-31T09:41:44;3.73;;;1.70;;
6358;SDS011;3212;51.460;11.868;2023-03-31T09:45:12;3.33;;;1.47;;
6358;SDS011;3212;51.460;11.868;2023-03-31T09:48:37;4.30;;;1.80;;
6358;SDS011;3212;51.460;11.868;2023-03-31T09:52:02;3.40;;;1.87;;
6358;SDS011;3212;51.460;11.868;2023-03-31T09:55:42;3.53;;;1.70;;
6358;SDS011;3212;51.460;11.868;2023-03-31T09:59:05;3.10;;;1.90;;
6358;SDS011;3212;51.460;11.868;2023-03-31T10:02:33;1.87;;;1.67;;
6358;SDS011;3212;51.460;11.868;2023-03-31T10:05:55;5.27;;;1.73;;
6358;SDS011;3212;51.460;11.868;2023-03-31T10:09:20;3.63;;;1.70;;
6358;SDS011;3212;51.460;11.868;2023-03-31T10:12:42;3.17;;;1.80;;
6358;SDS011;3212;51.460;11.868;2023-03-31T10:16:05;3.33;;;2.00;;
6358;SDS011;3212;51.460;11.868;2023-03-31T10:19:31;2.57;;;1.67;;
6358;SDS011;3212;51.460;11.868;2023-03-31T10:22:53;7.50;;;1.60;;
6358;SDS011;3212;51.460;11.868;2023-03-31T10:26:17;1.60;;;1.50;;
6358;SDS011;3212;51.460;11.868;2023-03-31T10:29:38;4.13;;;1.60;;
6358;SDS011;3212;51.460;11.868;2023-03-31T10:33:04;4.20;;;1.73;;
6358;SDS011;3212;51.460;11.868;2023-03-31T10:36:27;3.73;;;1.87;;
6358;SDS011;3212;51.460;11.868;2023-03-31T10:43:29;4.03;;;1.90;;
6358;SDS011;3212;51.460;11.868;2023-03-31T10:46:51;5.03;;;1.80;;
6358;SDS011;3212;51.460;11.868;2023-03-31T10:50:13;5.00;;;2.10;;
6358;SDS011;3212;51.460;11.868;2023-03-31T10:53:40;8.33;;;2.03;;
6358;SDS011;3212;51.460;11.868;2023-03-31T10:57:06;3.27;;;2.00;;
6358;SDS011;3212;51.460;11.868;2023-03-31T11:00:31;3.67;;;1.60;;
6358;SDS011;3212;51.460;11.868;2023-03-31T11:04:00;7.53;;;2.40;;
6358;SDS011;3212;51.460;11.868;2023-03-31T11:07:23;4.13;;;1.80;;
6358;SDS011;3212;51.460;11.868;2023-03-31T11:10:59;7.70;;;1.70;;
6358;SDS011;3212;51.460;11.868;2023-03-31T11:14:31;3.50;;;1.70;;
6358;SDS011;3212;51.460;11.868;2023-03-31T11:18:00;3.13;;;1.67;;
6358;SDS011;3212;51.460;11.868;2023-03-31T11:21:29;2.00;;;1.80;;
6358;SDS011;3212;51.460;11.868;2023-03-31T11:25:03;5.67;;;1.83;;
6358;SDS011;3212;51.460;11.868;2023-03-31T11:35:48;1.63;;;1.53;;
6358;SDS011;3212;51.460;11.868;2023-03-31T11:39:14;2.97;;;1.63;;
6358;SDS011;3212;51.460;11.868;2023-03-31T11:42:55;2.60;;;1.60;;
6358;SDS011;3212;51.460;11.868;2023-03-31T11:46:25;4.00;;;2.10;;
6358;SDS011;3212;51.460;11.868;2023-03-31T11:49:50;5.00;;;2.10;;
6358;SDS011;3212;51.460;11.868;2023-03-31T11:53:15;2.87;;;1.90;;
6358;SDS011;3212;51.460;11.868;2023-03-31T11:56:37;2.50;;;2.23;;
6358;SDS011;3212;51.460;11.868;2023-03-31T12:00:02;2.37;;;1.83;;
6358;SDS011;3212;51.460;11.868;2023-03-31T12:03:32;2.50;;;1.40;;
6358;SDS011;3212;51.460;11.868;2023-03-31T12:06:51;2.63;;;1.80;;
6358;SDS011;3212;51.460;11.868;2023-03-31T12:10:16;2.70;;;1.70;;
6358;SDS011;3212;51.460;11.868;2023-03-31T12:13:44;2.43;;;2.00;;
6358;SDS011;3212;51.460;11.868;2023-03-31T12:17:13;2.00;;;1.80;;
6358;SDS011;3212;51.460;11.868;2023-03-31T12:20:36;1.80;;;1.70;;
6358;SDS011;3212;51.460;11.868;2023-03-31T12:23:57;3.60;;;1.80;;
6358;SDS011;3212;51.460;11.868;2023-03-31T12:27:24;3.77;;;2.40;;
6358;SDS011;3212;51.460;11.868;2023-03-31T12:30:44;3.33;;;1.80;;
6358;SDS011;3212;51.460;11.868;2023-03-31T12:34:09;2.50;;;1.73;;
6358;SDS011;3212;51.460;11.868;2023-03-31T12:41:19;1.60;;;1.50;;
6358;SDS011;3212;51.460;11.868;2023-03-31T12:48:25;2.10;;;1.70;;
6358;SDS011;3212;51.460;11.868;2023-03-31T12:51:48;2.53;;;1.47;;
6358;SDS011;3212;51.460;11.868;2023-03-31T12:58:42;1.50;;;1.40;;
6358;SDS011;3212;51.460;11.868;2023-03-31T13:05:45;2.17;;;1.30;;
6358;SDS011;3212;51.460;11.868;2023-03-31T13:13:05;2.97;;;1.30;;
6358;SDS011;3212;51.460;11.868;2023-03-31T13:16:28;1.63;;;1.23;;
6358;SDS011;3212;51.460;11.868;2023-03-31T13:19:50;1.93;;;1.20;;
6358;SDS011;3212;51.460;11.868;2023-03-31T13:23:15;1.48;;;0.90;;
6358;SDS011;3212;51.460;11.868;2023-03-31T13:26:36;2.67;;;1.00;;
6358;SDS011;3212;51.460;11.868;2023-03-31T13:29:59;1.40;;;1.20;;
6358;SDS011;3212;51.460;11.868;2023-03-31T13:33:25;1.60;;;1.40;;
6358;SDS011;3212;51.460;11.868;2023-03-31T13:37:02;1.60;;;1.20;;
6358;SDS011;3212;51.460;11.868;2023-03-31T13:40:43;2.00;;;1.00;;
6358;SDS011;3212;51.460;11.868;2023-03-31T13:44:08;1.43;;;1.30;;
6358;SDS011;3212;51.460;11.868;2023-03-31T13:47:41;2.10;;;1.37;;
6358;SDS011;3212;51.460;11.868;2023-03-31T13:51:12;1.30;;;1.03;;
6358;SDS011;3212;51.460;11.868;2023-03-31T13:54:45;1.83;;;1.53;;
6358;SDS011;3212;51.460;11.868;2023-03-31T13:58:18;1.90;;;1.20;;
6358;SDS011;3212;51.460;11.868;2023-03-31T14:05:23;1.77;;;1.47;;
6358;SDS011;3212;51.460;11.868;2023-03-31T14:08:51;1.93;;;1.50;;
6358;SDS011;3212;51.460;11.868;2023-03-31T14:12:20;2.10;;;1.40;;
6358;SDS011;3212;51.460;11.868;2023-03-31T14:15:44;1.80;;;1.53;;
6358;SDS011;3212;51.460;11.868;2023-03-31T14:19:17;1.20;;;1.10;;
6358;SDS011;3212;51.460;11.868;2023-03-31T14:22:44;2.10;;;0.83;;
6358;SDS011;3212;51.460;11.868;2023-03-31T14:26:14;0.80;;;0.70;;
6358;SDS011;3212;51.460;11.868;2023-03-31T14:29:35;0.93;;;0.67;;
6358;SDS011;3212;51.460;11.868;2023-03-31T14:33:03;0.80;;;0.70;;
6358;SDS011;3212;51.460;11.868;2023-03-31T14:40:03;2.20;;;0.70;;
6358;SDS011;3212;51.460;11.868;2023-03-31T14:43:27;1.53;;;0.83;;
6358;SDS011;3212;51.460;11.868;2023-03-31T14:46:49;0.77;;;0.77;;
6358;SDS011;3212;51.460;11.868;2023-03-31T14:50:14;4.63;;;1.03;;
6358;SDS011;3212;51.460;11.868;2023-03-31T14:53:35;3.00;;;0.80;;
6358;SDS011;3212;51.460;11.868;2023-03-31T14:56:58;1.33;;;0.77;;
6358;SDS011;3212;51.460;11.868;2023-03-31T15:00:23;5.73;;;0.87;;
6358;SDS011;3212;51.460;11.868;2023-03-31T15:03:46;1.10;;;0.70;;
6358;SDS011;3212;51.460;11.868;2023-03-31T15:07:10;1.73;;;0.80;;
6358;SDS011;3212;51.460;11.868;2023-03-31T15:10:35;1.10;;;0.93;;
6358;SDS011;3212;51.460;11.868;2023-03-31T15:13:58;2.50;;;0.67;;
6358;SDS011;3212;51.460;11.868;2023-03-31T15:17:22;1.67;;;0.70;;
6358;SDS011;3212;51.460;11.868;2023-03-31T15:20:46;0.90;;;0.73;;
6358;SDS011;3212;51.460;11.868;2023-03-31T15:24:11;2.80;;;0.90;;
6358;SDS011;3212;51.460;11.868;2023-03-31T15:27:33;1.43;;;0.87;;
6358;SDS011;3212;51.460;11.868;2023-03-31T15:30:58;4.20;;;0.80;;
6358;SDS011;3212;51.460;11.868;2023-03-31T15:34:26;2.73;;;0.70;;
6358;SDS011;3212;51.460;11.868;2023-03-31T15:37:48;1.60;;;0.70;;
6358;SDS011;3212;51.460;11.868;2023-03-31T15:41:11;1.10;;;0.70;;
6358;SDS011;3212;51.460;11.868;2023-03-31T15:44:38;2.00;;;0.77;;
6358;SDS011;3212;51.460;11.868;2023-03-31T15:48:08;0.70;;;0.50;;
6358;SDS011;3212;51.460;11.868;2023-03-31T15:51:31;1.00;;;0.70;;
6358;SDS011;3212;51.460;11.868;2023-03-31T15:54:55;1.67;;;0.80;;
6358;SDS011;3212;51.460;11.868;2023-03-31T15:58:18;2.53;;;0.67;;
6358;SDS011;3212;51.460;11.868;2023-03-31T16:01:41;2.50;;;1.07;;
6358;SDS011;3212;51.460;11.868;2023-03-31T16:05:04;1.83;;;0.90;;
6358;SDS011;3212;51.460;11.868;2023-03-31T16:08:28;3.43;;;2.20;;
6358;SDS011;3212;51.460;11.868;2023-03-31T16:11:52;29.73;;;16.07;;
6358;SDS011;3212;51.460;11.868;2023-03-31T16:15:15;19.95;;;8.93;;
6358;SDS011;3212;51.460;11.868;2023-03-31T16:18:39;44.13;;;20.63;;
6358;SDS011;3212;51.460;11.868;2023-03-31T16:22:01;30.12;;;16.55;;
6358;SDS011;3212;51.460;11.868;2023-03-31T16:25:24;5.70;;;5.10;;
6358;SDS011;3212;51.460;11.868;2023-03-31T16:28:48;2.03;;;1.83;;
6358;SDS011;3212;51.460;11.868;2023-03-31T16:32:11;1.40;;;1.30;;
6358;SDS011;3212;51.460;11.868;2023-03-31T16:35:34;1.50;;;1.00;;
6358;SDS011;3212;51.460;11.868;2023-03-31T16:38:58;1.40;;;1.30;;
6358;SDS011;3212;51.460;11.868;2023-03-31T16:42:20;1.23;;;1.13;;
6358;SDS011;3212;51.460;11.868;2023-03-31T16:45:44;4.93;;;2.07;;
6358;SDS011;3212;51.460;11.868;2023-03-31T16:49:06;3.87;;;1.50;;
6358;SDS011;3212;51.460;11.868;2023-03-31T16:52:28;2.80;;;1.60;;
6358;SDS011;3212;51.460;11.868;2023-03-31T16:55:51;5.50;;;1.93;;
6358;SDS011;3212;51.460;11.868;2023-03-31T16:59:13;6.10;;;2.67;;
6358;SDS011;3212;51.460;11.868;2023-03-31T17:02:36;10.93;;;4.20;;
6358;SDS011;3212;51.460;11.868;2023-03-31T17:06:03;6.13;;;3.27;;
6358;SDS011;3212;51.460;11.868;2023-03-31T17:09:21;6.33;;;3.03;;
6358;SDS011;3212;51.460;11.868;2023-03-31T17:12:44;3.83;;;2.70;;
6358;SDS011;3212;51.460;11.868;2023-03-31T17:16:06;2.58;;;2.37;;
6358;SDS011;3212;51.460;11.868;2023-03-31T17:19:29;5.00;;;3.43;;
6358;SDS011;3212;51.460;11.868;2023-03-31T17:22:52;2.00;;;1.50;;
6358;SDS011;3212;51.460;11.868;2023-03-31T17:26:14;2.60;;;1.40;;
6358;SDS011;3212;51.460;11.868;2023-03-31T17:29:37;3.27;;;1.50;;
6358;SDS011;3212;51.460;11.868;2023-03-31T17:32:59;1.50;;;1.40;;
6358;SDS011;3212;51.460;11.868;2023-03-31T17:36:22;4.27;;;2.23;;
6358;SDS011;3212;51.460;11.868;2023-03-31T17:39:44;1.80;;;1.70;;
6358;SDS011;3212;51.460;11.868;2023-03-31T17:43:07;3.50;;;2.40;;
6358;SDS011;3212;51.460;11.868;2023-03-31T17:46:30;4.50;;;2.80;;
6358;SDS011;3212;51.460;11.868;2023-03-31T17:49:52;3.77;;;3.00;;
6358;SDS011;3212;51.460;11.868;2023-03-31T17:53:15;2.07;;;1.60;;
6358;SDS011;3212;51.460;11.868;2023-03-31T17:56:38;2.67;;;1.80;;
6358;SDS011;3212;51.460;11.868;2023-03-31T18:00:00;1.93;;;1.50;;
6358;SDS011;3212;51.460;11.868;2023-03-31T18:03:23;1.40;;;1.30;;
6358;SDS011;3212;51.460;11.868;2023-03-31T18:06:46;2.77;;;1.90;;
6358;SDS011;3212;51.460;11.868;2023-03-31T18:10:08;3.10;;;1.80;;
6358;SDS011;3212;51.460;11.868;2023-03-31T18:13:31;2.07;;;1.30;;
6358;SDS011;3212;51.460;11.868;2023-03-31T18:16:53;1.80;;;1.33;;
6358;SDS011;3212;51.460;11.868;2023-03-31T18:20:15;1.33;;;1.23;;
6358;SDS011;3212;51.460;11.868;2023-03-31T18:23:39;2.17;;;1.70;;
6358;SDS011;3212;51.460;11.868;2023-03-31T18:27:01;1.50;;;1.37;;
6358;SDS011;3212;51.460;11.868;2023-03-31T18:30:24;1.60;;;1.50;;
6358;SDS011;3212;51.460;11.868;2023-03-31T18:33:48;3.53;;;2.03;;
6358;SDS011;3212;51.460;11.868;2023-03-31T18:37:10;5.55;;;2.33;;
6358;SDS011;3212;51.460;11.868;2023-03-31T18:40:32;4.57;;;1.73;;
6358;SDS011;3212;51.460;11.868;2023-03-31T18:43:55;2.40;;;1.80;;
6358;SDS011;3212;51.460;11.868;2023-03-31T18:47:18;1.40;;;1.30;;
6358;SDS011;3212;51.460;11.868;2023-03-31T18:50:40;2.07;;;1.50;;
6358;SDS011;3212;51.460;11.868;2023-03-31T18:54:02;1.87;;;0.90;;
6358;SDS011;3212;51.460;11.868;2023-03-31T18:57:26;1.33;;;0.80;;
6358;SDS011;3212;51.460;11.868;2023-03-31T19:00:48;1.00;;;0.90;;
6358;SDS011;3212;51.460;11.868;2023-03-31T19:04:11;1.23;;;1.00;;
6358;SDS011;3212;51.460;11.868;2023-03-31T19:07:33;0.80;;;0.80;;
6358;SDS011;3212;51.460;11.868;2023-03-31T19:11:02;2.93;;;1.23;;
6358;SDS011;3212;51.460;11.868;2023-03-31T19:14:26;1.77;;;0.90;;
6358;SDS011;3212;51.460;11.868;2023-03-31T19:17:49;2.50;;;1.60;;
6358;SDS011;3212;51.460;11.868;2023-03-31T19:21:11;1.93;;;1.30;;
6358;SDS011;3212;51.460;11.868;2023-03-31T19:24:34;1.97;;;1.10;;
6358;SDS011;3212;51.460;11.868;2023-03-31T19:27:56;3.10;;;1.37;;
6358;SDS011;3212;51.460;11.868;2023-03-31T19:31:19;3.17;;;1.23;;
6358;SDS011;3212;51.460;11.868;2023-03-31T19:34:41;3.40;;;1.13;;
6358;SDS011;3212;51.460;11.868;2023-03-31T19:38:03;1.80;;;1.20;;
6358;SDS011;3212;51.460;11.868;2023-03-31T19:41:26;1.73;;;1.07;;
6358;SDS011;3212;51.460;11.868;2023-03-31T19:44:48;4.23;;;1.23;;
6358;SDS011;3212;51.460;11.868;2023-03-31T19:48:11;1.10;;;0.90;;
6358;SDS011;3212;51.460;11.868;2023-03-31T19:51:34;2.90;;;1.20;;
6358;SDS011;3212;51.460;11.868;2023-03-31T19:54:56;2.93;;;1.03;;
6358;SDS011;3212;51.460;11.868;2023-03-31T19:58:18;3.57;;;1.10;;
6358;SDS011;3212;51.460;11.868;2023-03-31T20:01:41;2.20;;;1.30;;
6358;SDS011;3212;51.460;11.868;2023-03-31T20:05:03;3.77;;;1.20;;
6358;SDS011;3212;51.460;11.868;2023-03-31T20:08:27;2.83;;;1.20;;
6358;SDS011;3212;51.460;11.868;2023-03-31T20:11:50;1.57;;;1.33;;
6358;SDS011;3212;51.460;11.868;2023-03-31T20:15:12;2.40;;;1.20;;
6358;SDS011;3212;51.460;11.868;2023-03-31T20:18:35;6.30;;;1.10;;
6358;SDS011;3212;51.460;11.868;2023-03-31T20:21:57;3.87;;;1.33;;
6358;SDS011;3212;51.460;11.868;2023-03-31T20:25:20;2.30;;;1.07;;
6358;SDS011;3212;51.460;11.868;2023-03-31T20:28:42;7.63;;;1.03;;
6358;SDS011;3212;51.460;11.868;2023-03-31T20:32:05;1.20;;;0.90;;
6358;SDS011;3212;51.460;11.868;2023-03-31T20:35:27;2.80;;;1.00;;
6358;SDS011;3212;51.460;11.868;2023-03-31T20:38:50;2.07;;;1.10;;
6358;SDS011;3212;51.460;11.868;2023-03-31T20:42:13;2.40;;;0.90;;
6358;SDS011;3212;51.460;11.868;2023-03-31T20:45:35;2.50;;;0.90;;
6358;SDS011;3212;51.460;11.868;2023-03-31T20:48:58;2.00;;;1.03;;
6358;SDS011;3212;51.460;11.868;2023-03-31T20:52:20;2.63;;;0.90;;
6358;SDS011;3212;51.460;11.868;2023-03-31T20:55:43;2.20;;;1.10;;
6358;SDS011;3212;51.460;11.868;2023-03-31T20:59:07;2.60;;;1.23;;
6358;SDS011;3212;51.460;11.868;2023-03-31T21:02:28;3.23;;;1.00;;
6358;SDS011;3212;51.460;11.868;2023-03-31T21:05:50;1.90;;;1.37;;
6358;SDS011;3212;51.460;11.868;2023-03-31T21:09:13;4.17;;;0.73;;
6358;SDS011;3212;51.460;11.868;2023-03-31T21:12:35;1.13;;;0.87;;
6358;SDS011;3212;51.460;11.868;2023-03-31T21:15:58;3.93;;;1.03;;
6358;SDS011;3212;51.460;11.868;2023-03-31T21:19:20;2.10;;;0.90;;
6358;SDS011;3212;51.460;11.868;2023-03-31T21:22:42;2.60;;;1.10;;
6358;SDS011;3212;51.460;11.868;2023-03-31T21:26:05;3.07;;;0.70;;
6358;SDS011;3212;51.460;11.868;2023-03-31T21:29:27;1.70;;;1.03;;
6358;SDS011;3212;51.460;11.868;2023-03-31T21:32:50;3.07;;;1.20;;
6358;SDS011;3212;51.460;11.868;2023-03-31T21:36:13;1.47;;;1.03;;
6358;SDS011;3212;51.460;11.868;2023-03-31T21:39:35;2.03;;;1.00;;
6358;SDS011;3212;51.460;11.868;2023-03-31T21:42:57;5.07;;;1.12;;
6358;SDS011;3212;51.460;11.868;2023-03-31T21:46:22;1.10;;;1.00;;
6358;SDS011;3212;51.460;11.868;2023-03-31T21:49:43;2.12;;;0.90;;